Time;durP1;ratioP1;P1;durP2;ratioP2;P2;SDS_P1;SDS_P2;PMS_P1;PMS_P2;Temp;Humidity;BMP_temperature;BMP_pressure;BME280_temperature;BME280_humidity;BME280_pressure;Samples;Min_cycle;Max_cycle;Signal;HPM_P1;HPM_P2
2022/08/07 00:01:10;;;;;;;14.15;5.75;;;12.70;99.90;;;;;;4924992;29;20384;-71
2022/08/07 00:03:36;;;;;;;10.88;5.75;;;12.70;99.90;;;;;;4922948;29;20346;-72
2022/08/07 00:06:03;;;;;;;11.65;6.20;;;12.60;99.90;;;;;;4921957;29;20047;-72
2022/08/07 00:08:29;;;;;;;11.50;5.40;;;12.60;99.90;;;;;;4938320;29;20066;-72
2022/08/07 00:10:56;;;;;;;12.52;5.97;;;12.60;99.90;;;;;;4903980;29;20048;-72
2022/08/07 00:13:23;;;;;;;12.93;5.93;;;12.50;99.90;;;;;;4922527;29;20163;-72
2022/08/07 00:15:50;;;;;;;15.18;5.88;;;12.50;99.90;;;;;;4922173;29;20048;-75
2022/08/07 00:18:20;;;;;;;10.07;5.65;;;12.50;99.90;;;;;;4942727;28;20142;-72
2022/08/07 00:20:51;;;;;;;10.18;5.38;;;12.50;99.90;;;;;;4938635;29;20047;-72
2022/08/07 00:23:17;;;;;;;10.70;5.38;;;12.40;99.90;;;;;;4937756;29;20138;-72
2022/08/07 00:25:43;;;;;;;11.02;5.07;;;12.40;99.90;;;;;;4952944;28;20150;-72
2022/08/07 00:28:11;;;;;;;13.73;5.93;;;12.40;99.90;;;;;;4953646;29;20086;-72
2022/08/07 00:30:37;;;;;;;11.77;5.50;;;12.30;99.90;;;;;;4938194;29;20058;-72
2022/08/07 00:33:11;;;;;;;12.80;5.80;;;12.30;99.90;;;;;;4953914;28;20058;-71
2022/08/07 00:35:59;;;;;;;10.75;5.40;;;12.20;99.90;;;;;;4923660;29;20051;-71
2022/08/07 00:38:25;;;;;;;10.13;5.20;;;12.10;99.90;;;;;;4953314;29;20094;-71
2022/08/07 00:40:54;;;;;;;14.73;5.45;;;12.10;99.90;;;;;;4932959;29;20079;-75
2022/08/07 00:43:20;;;;;;;9.88;5.20;;;12.00;99.90;;;;;;4903485;29;20063;-71
2022/08/07 00:45:45;;;;;;;10.07;5.22;;;12.00;99.90;;;;;;4918455;29;20156;-72
2022/08/07 00:48:21;;;;;;;10.55;5.78;;;11.90;99.90;;;;;;4941608;29;20109;-72
2022/08/07 00:50:47;;;;;;;12.40;5.55;;;11.40;99.90;;;;;;4921856;29;20043;-71
2022/08/07 00:53:13;;;;;;;10.65;5.60;;;11.90;99.90;;;;;;4937509;29;20118;-71
2022/08/07 00:55:45;;;;;;;11.80;6.05;;;11.30;99.90;;;;;;4920857;29;20047;-72
2022/08/07 00:58:12;;;;;;;12.55;5.95;;;12.20;99.90;;;;;;4936664;29;20383;-72
2022/08/07 01:00:41;;;;;;;11.18;4.97;;;12.00;99.90;;;;;;4936548;29;20579;-72
2022/08/07 01:03:07;;;;;;;9.82;5.25;;;11.80;99.90;;;;;;4937525;29;20123;-72
2022/08/07 01:05:41;;;;;;;9.88;5.25;;;11.90;99.90;;;;;;4953574;29;20098;-72
2022/08/07 01:08:10;;;;;;;13.13;5.25;;;;;;;;;;4954410;29;20047;-73
2022/08/07 01:10:42;;;;;;;14.65;5.50;;;11.70;99.90;;;;;;4951754;29;20066;-71
2022/08/07 01:13:08;;;;;;;11.07;5.50;;;11.70;99.90;;;;;;4937839;29;20400;-74
2022/08/07 01:15:35;;;;;;;10.55;5.20;;;11.70;99.90;;;;;;4929848;29;20214;-72
2022/08/07 01:18:01;;;;;;;11.80;5.78;;;11.70;99.90;;;;;;4952863;29;20058;-72
2022/08/07 01:20:33;;;;;;;13.20;6.38;;;11.70;99.90;;;;;;4952199;28;20554;-72
2022/08/07 01:23:02;;;;;;;15.10;6.68;;;11.70;99.90;;;;;;4918404;29;20067;-76
2022/08/07 01:25:28;;;;;;;12.70;6.32;;;11.80;99.90;;;;;;4902647;29;20118;-72
2022/08/07 01:27:57;;;;;;;12.55;5.90;;;11.80;99.90;;;;;;4935661;29;20106;-72
2022/08/07 01:30:25;;;;;;;12.45;6.45;;;11.80;99.90;;;;;;4920539;29;20153;-75
2022/08/07 01:32:52;;;;;;;14.15;5.75;;;11.80;99.90;;;;;;4919076;29;20147;-73
2022/08/07 01:35:19;;;;;;;11.57;5.93;;;11.80;99.90;;;;;;4933130;29;20052;-71
2022/08/07 01:37:46;;;;;;;12.10;5.97;;;11.80;99.90;;;;;;4933530;29;20055;-72
2022/08/07 01:40:13;;;;;;;13.80;6.30;;;11.80;99.90;;;;;;4892636;29;20043;-72
2022/08/07 01:42:39;;;;;;;10.93;6.10;;;11.80;99.90;;;;;;4937383;29;20101;-72
2022/08/07 01:45:05;;;;;;;13.57;5.85;;;11.90;99.90;;;;;;4951962;28;20129;-72
2022/08/07 01:47:32;;;;;;;14.07;6.20;;;11.80;99.90;;;;;;4935497;29;20046;-71
2022/08/07 01:49:59;;;;;;;15.27;6.20;;;11.80;99.90;;;;;;4952211;29;20138;-71
2022/08/07 01:52:28;;;;;;;15.40;6.72;;;11.80;99.90;;;;;;4936386;29;20058;-72
2022/08/07 01:54:57;;;;;;;14.10;6.20;;;11.90;99.90;;;;;;4935297;29;20069;-70
2022/08/07 01:57:27;;;;;;;13.80;5.90;;;11.80;99.90;;;;;;4920752;29;20687;-71
2022/08/07 01:59:59;;;;;;;13.60;6.07;;;11.80;99.90;;;;;;4936233;29;20070;-71
2022/08/07 02:02:35;;;;;;;15.05;5.97;;;11.70;99.90;;;;;;4935031;29;20904;-72
2022/08/07 02:05:12;;;;;;;16.27;6.53;;;11.80;99.90;;;;;;4932715;29;20434;-72
2022/08/07 02:07:45;;;;;;;17.73;6.38;;;11.70;99.90;;;;;;4922528;29;20062;-70
2022/08/07 02:10:12;;;;;;;12.25;6.15;;;11.70;99.90;;;;;;4950798;29;20113;-71
2022/08/07 02:12:42;;;;;;;12.07;5.82;;;11.70;99.90;;;;;;4953766;28;20109;-71
2022/08/07 02:15:10;;;;;;;14.77;5.93;;;11.70;99.90;;;;;;4951153;28;20051;-70
2022/08/07 02:17:38;;;;;;;14.32;6.28;;;11.70;99.90;;;;;;4911334;29;20056;-71
2022/08/07 02:20:06;;;;;;;13.23;6.60;;;11.70;99.90;;;;;;4916997;29;20043;-71
2022/08/07 02:22:34;;;;;;;14.38;5.97;;;11.60;99.90;;;;;;4949153;29;20052;-70
2022/08/07 02:25:02;;;;;;;14.35;6.32;;;11.60;99.90;;;;;;4931977;29;20135;-71
2022/08/07 02:27:35;;;;;;;14.23;6.10;;;11.60;99.90;;;;;;4948754;29;20056;-71
2022/08/07 02:30:11;;;;;;;16.02;6.45;;;11.60;99.90;;;;;;4919369;29;20433;-71
2022/08/07 02:32:39;;;;;;;13.40;6.68;;;11.60;99.90;;;;;;4953154;28;20133;-71
2022/08/07 02:35:07;;;;;;;14.70;6.30;;;11.60;99.90;;;;;;4936010;29;20051;-71
2022/08/07 02:37:36;;;;;;;19.25;6.82;;;11.60;99.90;;;;;;4936399;29;20125;-71
2022/08/07 02:40:06;;;;;;;13.25;6.03;;;11.60;99.90;;;;;;4933578;29;20058;-71
2022/08/07 02:42:33;;;;;;;15.07;6.65;;;11.50;99.90;;;;;;4916305;29;20047;-72
2022/08/07 02:45:00;;;;;;;;;;;11.50;99.90;;;;;;4917138;29;20044;-72
2022/08/07 02:47:25;;;;;;;;;;;11.50;99.90;;;;;;4939684;29;19922;-72
2022/08/07 02:49:57;;;;;;;13.55;6.07;;;11.50;99.90;;;;;;4931900;29;20247;-72
2022/08/07 02:52:37;;;;;;;13.02;6.30;;;11.40;99.90;;;;;;4932449;29;20058;-71
2022/08/07 02:55:21;;;;;;;12.73;6.10;;;11.40;99.90;;;;;;4931708;29;20075;-72
2022/08/07 02:57:49;;;;;;;12.50;6.20;;;11.40;99.90;;;;;;4917608;29;20066;-72
2022/08/07 03:00:16;;;;;;;13.68;6.40;;;11.40;99.90;;;;;;4925312;29;20050;-71
2022/08/07 03:02:46;;;;;;;16.85;6.78;;;11.40;99.90;;;;;;4936461;29;20162;-72
2022/08/07 03:05:14;;;;;;;14.40;6.68;;;11.30;99.90;;;;;;4915672;29;20066;-75
2022/08/07 03:07:41;;;;;;;15.50;7.07;;;11.30;99.90;;;;;;4932313;29;20135;-72
2022/08/07 03:10:16;;;;;;;16.15;6.72;;;11.30;99.90;;;;;;4915289;29;20067;-75
2022/08/07 03:12:44;;;;;;;15.73;6.93;;;11.30;99.90;;;;;;4916838;29;20098;-71
2022/08/07 03:15:12;;;;;;;14.07;6.65;;;11.20;99.90;;;;;;4916145;29;20057;-72
2022/08/07 03:17:41;;;;;;;15.05;7.32;;;11.20;99.90;;;;;;4916397;29;20048;-72
2022/08/07 03:20:19;;;;;;;13.55;6.57;;;11.20;99.90;;;;;;4933859;29;20505;-75
2022/08/07 03:22:46;;;;;;;16.67;7.22;;;11.20;99.90;;;;;;4919614;29;20059;-72
2022/08/07 03:25:14;;;;;;;16.23;7.30;;;11.20;99.90;;;;;;4933707;29;20055;-75
2022/08/07 03:27:45;;;;;;;18.13;8.25;;;11.20;99.90;;;;;;4936224;29;20053;-72
2022/08/07 03:30:12;;;;;;;14.60;6.85;;;11.10;99.90;;;;;;4903989;29;20371;-72
2022/08/07 03:32:41;;;;;;;17.25;7.38;;;11.10;99.90;;;;;;4919479;29;20130;-70
2022/08/07 03:35:14;;;;;;;18.13;7.82;;;11.10;99.90;;;;;;4935030;29;20101;-72
2022/08/07 03:37:45;;;;;;;16.65;7.53;;;11.10;99.90;;;;;;4950218;29;20051;-72
2022/08/07 03:40:19;;;;;;;16.58;7.80;;;11.10;99.90;;;;;;4934560;29;20106;-75
2022/08/07 03:42:52;;;;;;;16.80;7.85;;;11.10;99.90;;;;;;4950390;29;20077;-70
2022/08/07 03:45:24;;;;;;;17.67;8.18;;;11.10;99.90;;;;;;4950507;29;20047;-71
2022/08/07 03:47:50;;;;;;;17.10;8.05;;;11.00;99.90;;;;;;4935289;29;20059;-71
2022/08/07 03:50:23;;;;;;;18.45;7.75;;;11.00;99.90;;;;;;4935455;29;20051;-71
2022/08/07 03:52:51;;;;;;;18.80;8.60;;;11.10;99.90;;;;;;4935423;29;20106;-71
2022/08/07 03:55:17;;;;;;;18.08;8.38;;;11.00;99.90;;;;;;4919444;29;20460;-75
2022/08/07 03:57:45;;;;;;;20.52;8.40;;;11.10;99.90;;;;;;4920886;29;20133;-71
2022/08/07 04:00:13;;;;;;;20.40;8.93;;;11.10;99.90;;;;;;4954209;28;20054;-72
2022/08/07 04:02:41;;;;;;;18.20;8.50;;;11.10;99.90;;;;;;4922062;29;20054;-72
2022/08/07 04:05:08;;;;;;;19.75;8.93;;;11.10;99.90;;;;;;4922949;29;20053;-73
2022/08/07 04:07:42;;;;;;;18.48;8.98;;;11.10;99.90;;;;;;4922991;29;20492;-71
2022/08/07 04:10:08;;;;;;;27.15;9.57;;;11.10;99.90;;;;;;4922359;29;20043;-71
2022/08/07 04:12:34;;;;;;;19.50;9.10;;;11.10;99.90;;;;;;4921048;29;20079;-72
2022/08/07 04:15:00;;;;;;;18.17;8.95;;;11.10;99.90;;;;;;4935091;29;20055;-71
2022/08/07 04:17:27;;;;;;;18.92;8.45;;;11.10;99.90;;;;;;4926518;29;20139;-72
2022/08/07 04:20:00;;;;;;;17.30;7.75;;;11.10;99.90;;;;;;4905505;29;20048;-72
2022/08/07 04:22:27;;;;;;;15.98;7.45;;;11.10;99.90;;;;;;4918110;29;20048;-72
2022/08/07 04:24:54;;;;;;;15.82;8.00;;;11.10;99.90;;;;;;4918247;29;20408;-72
2022/08/07 04:27:20;;;;;;;16.92;7.55;;;11.10;99.90;;;;;;4919798;29;20147;-75
2022/08/07 04:29:48;;;;;;;16.58;7.05;;;11.10;99.90;;;;;;4903238;29;20130;-72
2022/08/07 04:32:14;;;;;;;18.42;8.43;;;11.20;99.90;;;;;;4903713;29;20050;-72
2022/08/07 04:34:41;;;;;;;17.63;8.13;;;11.20;99.90;;;;;;4934807;29;20051;-72
2022/08/07 04:37:12;;;;;;;22.05;8.88;;;11.20;99.90;;;;;;4919065;29;20194;-71
2022/08/07 04:39:40;;;;;;;16.75;8.27;;;11.20;99.90;;;;;;4942477;29;20162;-71
2022/08/07 04:42:11;;;;;;;19.92;9.18;;;11.30;99.90;;;;;;4918970;29;20517;-71
2022/08/07 04:44:40;;;;;;;18.38;8.20;;;11.30;99.90;;;;;;4933182;29;20056;-71
2022/08/07 04:47:21;;;;;;;18.30;8.45;;;11.40;99.90;;;;;;4902836;29;20557;-72
2022/08/07 04:50:31;;;;;;;17.83;8.90;;;11.50;99.90;;;;;;4934027;29;20048;-72
2022/08/07 04:53:18;;;;;;;19.50;8.77;;;11.50;99.90;;;;;;4912212;29;20385;-73
2022/08/07 04:55:56;;;;;;;;;;;11.60;99.90;;;;;;4917360;29;20052;-71
2022/08/07 04:58:43;;;;;;;21.92;7.75;;;11.60;99.90;;;;;;4934349;29;20263;-75
2022/08/07 05:01:27;;;;;;;19.77;8.70;;;11.80;99.90;;;;;;4944075;29;20070;-72
2022/08/07 05:04:21;;;;;;;19.95;8.95;;;11.90;99.90;;;;;;4937727;29;20526;-73
2022/08/07 05:07:01;;;;;;;18.90;8.60;;;12.00;99.90;;;;;;4952114;28;20047;-70
2022/08/07 05:09:39;;;;;;;17.50;8.02;;;12.00;99.90;;;;;;4951406;29;20059;-71
2022/08/07 05:12:12;;;;;;;19.92;7.75;;;12.10;99.90;;;;;;4937419;29;20051;-71
2022/08/07 05:14:42;;;;;;;18.75;8.30;;;12.20;99.90;;;;;;4953278;28;20059;-70
2022/08/07 05:17:12;;;;;;;19.17;8.43;;;12.20;99.90;;;;;;4953233;29;20460;-71
2022/08/07 05:19:43;;;;;;;20.15;9.32;;;12.20;99.90;;;;;;4936306;29;20043;-71
2022/08/07 05:22:11;;;;;;;21.35;9.20;;;12.30;99.90;;;;;;4933613;29;20389;-71
2022/08/07 05:24:39;;;;;;;20.77;9.20;;;12.30;99.90;;;;;;4932254;29;20067;-71
2022/08/07 05:27:14;;;;;;;16.05;8.00;;;12.40;99.90;;;;;;4953339;28;20054;-72
2022/08/07 05:29:42;;;;;;;20.50;8.57;;;12.40;99.90;;;;;;4952140;29;20066;-71
2022/08/07 05:32:17;;;;;;;21.20;9.30;;;12.50;99.90;;;;;;4937393;29;20396;-71
2022/08/07 05:34:45;;;;;;;21.30;9.25;;;12.50;99.90;;;;;;4919162;29;20515;-72
2022/08/07 05:37:14;;;;;;;20.05;9.48;;;12.60;99.90;;;;;;4952938;28;20635;-74
2022/08/07 05:39:48;;;;;;;19.70;9.20;;;12.70;99.90;;;;;;4936707;29;20097;-71
2022/08/07 05:42:15;;;;;;;18.05;9.55;;;12.80;99.90;;;;;;4921649;29;20043;-72
2022/08/07 05:44:41;;;;;;;19.67;9.70;;;12.80;99.90;;;;;;4936911;29;20070;-72
2022/08/07 05:47:07;;;;;;;22.00;10.93;;;12.90;99.90;;;;;;4937580;29;20448;-74
2022/08/07 05:49:35;;;;;;;20.55;9.88;;;12.90;99.90;;;;;;4951252;29;21249;-71
2022/08/07 05:52:04;;;;;;;19.58;10.63;;;13.00;99.90;;;;;;4921582;29;20101;-72
2022/08/07 05:54:35;;;;;;;19.85;10.70;;;13.10;99.90;;;;;;4935681;29;20058;-71
2022/08/07 05:57:02;;;;;;;21.83;10.95;;;13.20;99.90;;;;;;4936948;29;20047;-71
2022/08/07 05:59:30;;;;;;;21.38;10.10;;;13.20;99.90;;;;;;4920158;29;20495;-72
2022/08/07 06:01:58;;;;;;;25.17;11.38;;;13.30;99.90;;;;;;4937454;29;20047;-73
2022/08/07 06:04:24;;;;;;;23.63;11.73;;;13.40;99.90;;;;;;4906243;29;20044;-72
2022/08/07 06:06:58;;;;;;;23.30;11.25;;;13.50;99.90;;;;;;4934445;29;20063;-72
2022/08/07 06:09:24;;;;;;;21.83;11.13;;;13.60;99.90;;;;;;4932342;29;20071;-72
2022/08/07 06:11:50;;;;;;;22.05;10.70;;;13.60;99.90;;;;;;4901493;29;20579;-73
2022/08/07 06:14:16;;;;;;;21.33;10.88;;;13.80;99.90;;;;;;4933518;29;20055;-72
2022/08/07 06:16:46;;;;;;;23.75;11.15;;;13.80;99.90;;;;;;4934009;29;20061;-72
2022/08/07 06:19:13;;;;;;;24.55;11.30;;;14.00;99.90;;;;;;4942353;29;20051;-72
2022/08/07 06:21:42;;;;;;;20.65;10.43;;;14.00;99.90;;;;;;4951891;29;20047;-71
2022/08/07 06:24:15;;;;;;;22.77;10.70;;;14.10;99.90;;;;;;4921045;29;20077;-70
2022/08/07 06:26:42;;;;;;;23.27;11.18;;;14.20;99.90;;;;;;4934602;29;20055;-71
2022/08/07 06:29:10;;;;;;;21.50;10.85;;;14.20;99.90;;;;;;4950993;29;20146;-73
2022/08/07 06:31:36;;;;;;;21.70;10.15;;;14.30;99.90;;;;;;4951854;29;20059;-73
2022/08/07 06:34:04;;;;;;;23.67;10.73;;;14.40;99.90;;;;;;4936080;29;20047;-73
2022/08/07 06:36:30;;;;;;;21.10;10.65;;;14.50;99.90;;;;;;4905189;29;20047;-71
2022/08/07 06:38:57;;;;;;;20.20;10.18;;;14.50;99.90;;;;;;4933733;29;20161;-72
2022/08/07 06:41:31;;;;;;;19.55;9.70;;;14.60;99.90;;;;;;4915075;29;20427;-71
2022/08/07 06:43:59;;;;;;;24.15;9.95;;;14.60;99.90;;;;;;4932331;29;20094;-71
2022/08/07 06:46:25;;;;;;;22.58;10.82;;;14.70;99.90;;;;;;4934957;29;20058;-71
2022/08/07 06:48:54;;;;;;;20.50;10.10;;;14.80;99.90;;;;;;4935502;29;20082;-71
2022/08/07 06:51:25;;;;;;;21.48;9.98;;;14.90;99.90;;;;;;4935734;29;20051;-72
2022/08/07 06:53:53;;;;;;;19.50;9.90;;;15.00;99.90;;;;;;4950539;29;20062;-71
2022/08/07 06:56:38;;;;;;;19.75;9.35;;;15.10;99.90;;;;;;4951127;29;20051;-71
2022/08/07 06:59:11;;;;;;;19.77;9.15;;;15.20;99.90;;;;;;4935859;29;20128;-73
2022/08/07 07:01:41;;;;;;;18.63;8.90;;;15.30;99.90;;;;;;4934995;29;20087;-74
2022/08/07 07:04:08;;;;;;;18.00;8.40;;;15.40;99.90;;;;;;4934572;29;20055;-72
2022/08/07 07:06:34;;;;;;;15.75;8.00;;;15.50;99.90;;;;;;4951767;29;20047;-72
2022/08/07 07:09:24;;;;;;;18.27;7.73;;;15.50;99.90;;;;;;4935891;29;20058;-73
2022/08/07 07:12:02;;;;;;;18.25;8.45;;;15.60;99.90;;;;;;4965931;28;20602;-75
2022/08/07 07:14:50;;;;;;;15.82;7.93;;;15.80;99.90;;;;;;4950954;29;20044;-72
2022/08/07 07:17:32;;;;;;;16.42;7.25;;;15.90;99.90;;;;;;4953760;28;20143;-72
2022/08/07 07:20:13;;;;;;;15.45;7.75;;;16.10;99.90;;;;;;4949299;29;20047;-73
2022/08/07 07:22:41;;;;;;;16.55;8.50;;;16.30;99.90;;;;;;4929582;29;20064;-73
2022/08/07 07:25:08;;;;;;;13.38;7.95;;;16.50;99.90;;;;;;4954254;29;20142;-73
2022/08/07 07:27:38;;;;;;;17.20;7.80;;;16.50;99.90;;;;;;4961126;28;20051;-76
2022/08/07 07:30:06;;;;;;;15.27;7.70;;;16.50;99.90;;;;;;4961610;28;20054;-73
2022/08/07 07:32:37;;;;;;;14.35;7.53;;;16.70;99.90;;;;;;4964644;28;20421;-73
2022/08/07 07:35:10;;;;;;;18.33;7.50;;;16.80;99.90;;;;;;4962084;29;20047;-73
2022/08/07 07:37:40;;;;;;;13.95;7.20;;;17.00;99.90;;;;;;4930895;29;20407;-72
2022/08/07 07:40:16;;;;;;;12.43;6.82;;;17.00;99.90;;;;;;4942815;29;20073;-76
2022/08/07 07:42:43;;;;;;;12.43;6.07;;;17.00;99.90;;;;;;4960682;29;20531;-72
2022/08/07 07:45:11;;;;;;;14.35;6.85;;;17.10;99.90;;;;;;4941538;29;20050;-73
2022/08/07 07:47:43;;;;;;;11.35;6.18;;;17.10;99.90;;;;;;4945434;29;20154;-73
2022/08/07 07:50:11;;;;;;;10.38;5.47;;;17.20;99.90;;;;;;4943583;29;20054;-73
2022/08/07 07:52:40;;;;;;;12.00;5.68;;;17.30;99.90;;;;;;4943900;29;20059;-73
2022/08/07 07:55:10;;;;;;;10.73;5.38;;;17.40;99.90;;;;;;4955477;29;20496;-73
2022/08/07 07:57:38;;;;;;;12.57;5.47;;;17.40;99.90;;;;;;4942162;29;20062;-73
2022/08/07 08:00:11;;;;;;;11.27;5.55;;;17.50;99.90;;;;;;4940190;29;20055;-73
2022/08/07 08:02:38;;;;;;;13.10;6.38;;;17.60;99.90;;;;;;4940666;29;20097;-73
2022/08/07 08:05:07;;;;;;;15.95;6.78;;;17.60;99.90;;;;;;4956595;28;20047;-72
2022/08/07 08:07:35;;;;;;;14.88;7.25;;;17.70;99.90;;;;;;4941463;29;20070;-73
2022/08/07 08:10:06;;;;;;;14.23;6.85;;;17.70;99.90;;;;;;4956932;29;20039;-75
2022/08/07 08:12:33;;;;;;;13.90;6.68;;;17.80;99.90;;;;;;4926469;29;20396;-74
2022/08/07 08:15:09;;;;;;;10.85;5.70;;;17.90;99.90;;;;;;4939149;29;20399;-75
2022/08/07 08:17:35;;;;;;;12.82;4.60;;;18.00;99.90;;;;;;4912033;29;20066;-71
2022/08/07 08:20:09;;;;;;;9.18;4.80;;;18.10;99.90;;;;;;4935676;29;20047;-72
2022/08/07 08:28:19;;;;;;;9.07;3.83;;;18.20;99.90;;;;;;4957679;29;20059;-75
2022/08/07 08:30:46;;;;;;;6.85;3.67;;;18.30;99.90;;;;;;4940693;29;20051;-74
2022/08/07 08:33:17;;;;;;;13.60;4.47;;;18.20;99.90;;;;;;4939034;29;20066;-74
2022/08/07 08:35:48;;;;;;;8.65;4.32;;;18.30;99.90;;;;;;4937329;29;20039;-74
2022/08/07 08:38:18;;;;;;;10.40;4.75;;;18.30;99.90;;;;;;4945832;28;20051;-74
2022/08/07 08:40:53;;;;;;;6.80;3.38;;;18.40;99.90;;;;;;4935546;28;20094;-75
2022/08/07 08:43:22;;;;;;;9.68;3.50;;;18.50;99.90;;;;;;4920075;29;20048;-75
2022/08/07 08:46:05;;;;;;;9.55;3.78;;;18.60;99.90;;;;;;4918852;29;20105;-73
2022/08/07 08:48:52;;;;;;;8.35;3.92;;;18.70;99.90;;;;;;4935501;29;20051;-74
2022/08/07 08:52:00;;;;;;;9.02;3.50;;;18.80;99.90;;;;;;4947286;29;20066;-75
2022/08/07 08:54:35;;;;;;;9.93;4.05;;;18.90;99.90;;;;;;4935566;29;20126;-74
2022/08/07 08:57:07;;;;;;;9.38;3.83;;;19.00;99.90;;;;;;4952857;29;20059;-74
2022/08/07 08:59:44;;;;;;;8.82;3.95;;;19.00;99.90;;;;;;4938607;29;20043;-77
2022/08/07 09:02:29;;;;;;;7.45;3.85;;;19.20;99.90;;;;;;4954551;29;20127;-73
2022/08/07 09:05:03;;;;;;;8.35;4.10;;;19.30;99.90;;;;;;4952754;29;20486;-72
2022/08/07 09:07:48;;;;;;;7.72;4.03;;;19.30;99.90;;;;;;4955320;29;20380;-73
2022/08/07 09:10:26;;;;;;;8.05;3.70;;;19.30;99.90;;;;;;4953179;29;20110;-75
2022/08/07 09:13:30;;;;;;;9.32;3.58;;;19.40;99.00;;;;;;4940928;29;20047;-74
2022/08/07 09:16:09;;;;;;;7.22;3.75;;;19.50;98.80;;;;;;4956218;29;20069;-77
2022/08/07 09:18:54;;;;;;;8.52;3.95;;;19.60;97.90;;;;;;4940545;29;20123;-73
2022/08/07 09:21:44;;;;;;;9.52;4.28;;;19.70;98.60;;;;;;4959619;29;20096;-73
2022/08/07 09:24:29;;;;;;;8.15;3.58;;;19.70;97.10;;;;;;4952584;29;20102;-74
2022/08/07 09:27:25;;;;;;;9.88;3.90;;;19.70;97.40;;;;;;4956074;28;20134;-75
2022/08/07 09:29:51;;;;;;;9.18;3.85;;;19.80;96.90;;;;;;4954639;29;20391;-74
2022/08/07 09:32:47;;;;;;;8.07;3.60;;;19.90;98.30;;;;;;4955406;29;20063;-74
2022/08/07 09:35:45;;;;;;;7.38;3.80;;;20.00;97.60;;;;;;4954409;29;20197;-77
2022/08/07 09:38:42;;;;;;;7.32;3.63;;;20.10;97.90;;;;;;4953080;28;20060;-75
2022/08/07 09:41:59;;;;;;;8.85;3.88;;;20.30;97.70;;;;;;4935615;29;20381;-77
2022/08/07 09:44:38;;;;;;;9.27;3.45;;;20.50;97.30;;;;;;4881575;29;20064;-73
2022/08/07 09:47:30;;;;;;;7.97;3.75;;;20.60;96.30;;;;;;4936033;29;20048;-75
2022/08/07 09:50:08;;;;;;;8.32;3.30;;;20.80;96.00;;;;;;4938588;29;20039;-75
2022/08/07 09:52:50;;;;;;;6.88;2.42;;;20.80;94.60;;;;;;4919929;29;20059;-75
2022/08/07 09:55:30;;;;;;;6.10;2.60;;;20.90;94.90;;;;;;4932498;29;20381;-75
2022/08/07 09:58:11;;;;;;;7.53;2.70;;;20.90;94.70;;;;;;4952459;29;20099;-75
2022/08/07 10:01:25;;;;;;;9.45;2.50;;;21.10;94.00;;;;;;4954230;28;20112;-73
2022/08/07 10:04:44;;;;;;;6.55;2.38;;;20.70;92.60;;;;;;4880111;29;20501;-74
2022/08/07 10:07:33;;;;;;;5.65;2.40;;;20.60;92.90;;;;;;4946014;29;20102;-73
2022/08/07 10:10:30;;;;;;;4.45;2.30;;;20.50;93.20;;;;;;4943168;29;20078;-75
2022/08/07 10:13:49;;;;;;;6.22;2.15;;;20.40;92.40;;;;;;4961492;28;20583;-74
2022/08/07 10:16:33;;;;;;;7.95;2.72;;;20.60;93.50;;;;;;4954712;29;20047;-73
2022/08/07 10:19:33;;;;;;;4.55;2.15;;;20.70;92.90;;;;;;4952546;29;20518;-72
2022/08/07 10:22:31;;;;;;;4.30;2.00;;;20.70;92.30;;;;;;4926165;29;20082;-75
2022/08/07 10:25:19;;;;;;;8.05;2.20;;;20.80;92.70;;;;;;4935046;29;20194;-74
2022/08/07 10:28:10;;;;;;;5.45;1.90;;;20.90;93.10;;;;;;4952533;29;20055;-75
2022/08/07 10:31:13;;;;;;;4.35;1.85;;;21.00;92.40;;;;;;4933375;29;20055;-73
2022/08/07 10:33:59;;;;;;;5.85;2.13;;;21.10;91.80;;;;;;4956177;28;20086;-73
2022/08/07 10:36:49;;;;;;;5.38;2.25;;;21.20;92.40;;;;;;4937651;29;20050;-73
2022/08/07 10:39:26;;;;;;;5.80;1.80;;;21.10;91.90;;;;;;4937726;29;20098;-76
2022/08/07 10:42:29;;;;;;;5.70;2.55;;;21.20;92.20;;;;;;4942069;29;20127;-75
2022/08/07 10:45:08;;;;;;;4.68;2.33;;;21.30;91.80;;;;;;4933504;29;20488;-73
2022/08/07 10:48:03;;;;;;;5.90;1.95;;;21.30;91.30;;;;;;4936466;29;20047;-74
2022/08/07 10:50:41;;;;;;;6.88;2.00;;;21.20;90.60;;;;;;4905532;29;20051;-74
2022/08/07 10:53:37;;;;;;;6.22;1.83;;;21.30;90.70;;;;;;4933386;29;20044;-77
2022/08/07 10:56:10;;;;;;;3.03;1.33;;;21.30;90.80;;;;;;4910585;29;20389;-74
2022/08/07 10:59:07;;;;;;;4.70;1.60;;;21.40;89.20;;;;;;4917713;29;20087;-74
2022/08/07 11:01:55;;;;;;;6.25;1.88;;;21.40;88.90;;;;;;4916454;29;20047;-74
2022/08/07 11:04:21;;;;;;;5.78;1.88;;;21.40;90.40;;;;;;4917662;29;20476;-74
2022/08/07 11:07:00;;;;;;;5.20;2.03;;;21.40;90.30;;;;;;4935338;29;20478;-74
2022/08/07 11:09:33;;;;;;;5.00;2.00;;;21.40;90.30;;;;;;4931538;29;20055;-72
2022/08/07 11:12:17;;;;;;;10.18;1.63;;;21.30;90.00;;;;;;4940834;29;20110;-72
2022/08/07 11:14:57;;;;;;;5.90;2.00;;;21.30;88.50;;;;;;4951928;29;20198;-72
2022/08/07 11:17:40;;;;;;;6.35;1.83;;;21.30;90.10;;;;;;4932266;29;20361;-72
2022/08/07 11:20:13;;;;;;;4.80;1.67;;;21.50;90.20;;;;;;4942457;29;20095;-74
2022/08/07 11:23:07;;;;;;;7.65;2.00;;;21.50;89.80;;;;;;4934445;29;20083;-74
2022/08/07 11:25:39;;;;;;;7.13;1.83;;;21.60;89.80;;;;;;4926497;29;20874;-74
2022/08/07 11:28:08;;;;;;;5.65;1.95;;;21.60;90.10;;;;;;4951040;29;20107;-75
2022/08/07 11:30:42;;;;;;;3.65;1.30;;;21.80;90.60;;;;;;4952569;29;20035;-73
2022/08/07 11:33:32;;;;;;;2.95;1.50;;;21.90;83.40;;;;;;4935487;29;20122;-74
2022/08/07 11:36:21;;;;;;;4.30;1.38;;;21.90;86.40;;;;;;4936540;29;20118;-73
2022/08/07 11:39:16;;;;;;;4.95;1.30;;;21.70;83.30;;;;;;4936048;29;20065;-73
2022/08/07 11:42:13;;;;;;;3.75;1.38;;;21.80;82.30;;;;;;4922933;29;20051;-73
2022/08/07 11:44:52;;;;;;;5.72;1.55;;;21.80;85.40;;;;;;4951978;29;20510;-72
2022/08/07 11:48:04;;;;;;;4.90;1.40;;;21.90;86.70;;;;;;4936172;29;20134;-74
2022/08/07 11:51:05;;;;;;;2.95;1.20;;;21.90;85.70;;;;;;4933359;28;20198;-72
2022/08/07 11:53:48;;;;;;;4.57;1.55;;;22.10;87.00;;;;;;4949520;28;20059;-74
2022/08/07 11:56:45;;;;;;;3.90;1.25;;;22.20;84.50;;;;;;4941803;29;20126;-74
2022/08/07 11:59:39;;;;;;;3.40;1.30;;;22.20;83.70;;;;;;4952112;29;20043;-76
2022/08/07 12:02:08;;;;;;;3.75;1.27;;;22.10;83.90;;;;;;4950730;29;20396;-72
2022/08/07 12:04:58;;;;;;;3.97;1.35;;;22.00;83.30;;;;;;4936236;28;20493;-74
2022/08/07 12:07:29;;;;;;;4.28;1.35;;;21.90;82.30;;;;;;4932344;29;20087;-74
2022/08/07 12:10:04;;;;;;;2.88;1.10;;;21.90;83.40;;;;;;4935773;29;20074;-74
2022/08/07 12:12:54;;;;;;;3.42;1.10;;;21.80;80.80;;;;;;4951294;29;20048;-73
2022/08/07 12:15:29;;;;;;;3.83;1.02;;;21.80;80.60;;;;;;4935723;29;20058;-76
2022/08/07 12:18:17;;;;;;;4.72;1.10;;;21.80;80.70;;;;;;4956248;29;20053;-76
2022/08/07 12:21:07;;;;;;;4.28;1.20;;;21.80;80.30;;;;;;4954249;28;20134;-72
2022/08/07 12:23:49;;;;;;;3.85;1.20;;;22.00;81.50;;;;;;4953839;28;20126;-74
2022/08/07 12:26:23;;;;;;;3.60;1.25;;;22.20;82.40;;;;;;4953340;29;20051;-72
2022/08/07 12:29:31;;;;;;;2.88;1.05;;;22.10;80.50;;;;;;4938511;29;20455;-73
2022/08/07 12:32:10;;;;;;;3.95;1.30;;;22.30;81.40;;;;;;4901780;29;20059;-74
2022/08/07 12:34:39;;;;;;;4.18;1.30;;;22.30;80.40;;;;;;4938227;29;20055;-75
2022/08/07 12:37:07;;;;;;;3.20;1.10;;;22.30;80.90;;;;;;4955660;29;20170;-74
2022/08/07 12:39:35;;;;;;;2.70;1.10;;;22.40;80.20;;;;;;4936402;29;20122;-74
2022/08/07 12:42:04;;;;;;;2.72;0.90;;;22.50;77.10;;;;;;4936623;29;20055;-71
2022/08/07 12:44:31;;;;;;;2.53;0.80;;;22.60;76.90;;;;;;4934702;29;20396;-71
2022/08/07 12:47:27;;;;;;;4.05;0.82;;;22.60;73.90;;;;;;4934655;29;20055;-75
2022/08/07 12:50:17;;;;;;;3.22;0.90;;;22.60;74.50;;;;;;4948013;28;20452;-74
2022/08/07 12:53:02;;;;;;;3.50;0.90;;;22.50;75.10;;;;;;4968703;28;20078;-75
2022/08/07 12:56:00;;;;;;;4.40;1.15;;;22.50;72.80;;;;;;4947476;29;20051;-73
2022/08/07 12:58:27;;;;;;;9.13;1.42;;;22.50;74.90;;;;;;4934606;29;20059;-77
2022/08/07 13:01:05;;;;;;;3.33;1.20;;;22.50;74.20;;;;;;4922948;29;20098;-72
2022/08/07 13:04:09;;;;;;;5.65;1.52;;;22.60;76.10;;;;;;4952414;29;20070;-73
2022/08/07 13:06:53;;;;;;;4.45;1.30;;;22.70;76.10;;;;;;4938340;29;20047;-74
2022/08/07 13:09:40;;;;;;;3.92;1.27;;;22.90;76.30;;;;;;4966702;29;20039;-76
2022/08/07 13:12:22;;;;;;;3.80;1.23;;;22.80;73.80;;;;;;4964433;29;20133;-72
2022/08/07 13:15:00;;;;;;;2.42;0.95;;;22.50;70.10;;;;;;4956663;29;20055;-77
2022/08/07 13:17:40;;;;;;;3.00;0.88;;;22.40;70.60;;;;;;4938625;29;20081;-75
2022/08/07 13:20:26;;;;;;;2.85;1.00;;;22.60;71.00;;;;;;4953059;29;20047;-76
2022/08/07 13:23:09;;;;;;;4.45;1.05;;;22.60;71.90;;;;;;4918748;29;20111;-72
2022/08/07 13:25:58;;;;;;;3.65;1.00;;;22.50;69.00;;;;;;4917975;29;20430;-72
2022/08/07 13:28:38;;;;;;;2.55;0.90;;;22.70;70.80;;;;;;4938560;29;20047;-74